• Join FlightAware (Why Join?)
  • Login
  • US Flag 
02:27PM EDT


 

Airport Tracker/Info


-or-


 

Live Flight TrackerFlight Track Log ✈ N96CB ✈ 28-Jul-2014 ✈ KDHN - KPMP

Flight Track Log - Related Links

Times and Time Zones

All times are in EDT time to prevent confusion due to time zone crossing. See the N96CB flight status page for this flight to view local times or setup timezone preferences in your user account.

Time Position Orientation Groundspeed Altitude Reporting Facility
EDT Latitude Longitude Course Direction KTS MPH feet Rate Location/Type
07:54AM 31.3367 -85.4658 55° Northeast 86 99 900  Level Jacksonville Center
07:55AM 31.3453 -85.4517 55° Northeast 109 125 1,400 660 Climbing Jacksonville Center
07:56AM 31.3186 -85.4242 139° Southeast 126 145 2,000 600 Climbing Jacksonville Center
07:57AM 31.2942 -85.3967 136° Southeast 118 136 2,700 600 Climbing Jacksonville Center
07:58AM 31.2675 -85.3789 150° Southeast 115 132 3,300 540 Climbing Jacksonville Center
07:59AM 31.2428 -85.3542 139° Southeast 112 129 3,900 600 Climbing Jacksonville Center
08:00AM 31.2183 -85.3242 134° Southeast 116 133 4,600 600 Climbing Jacksonville Center
08:01AM 31.1981 -85.2994 134° Southeast 113 130 5,200 540 Climbing Jacksonville Center
08:02AM 31.1733 -85.2744 139° Southeast 115 132 5,700 540 Climbing Jacksonville Center
08:03AM 31.1531 -85.2425 127° Southeast 127 146 6,300 540 Climbing Jacksonville Center
08:04AM 31.1306 -85.2103 129° Southeast 120 138 6,900 540 Climbing Jacksonville Center
08:05AM 31.1125 -85.1831 128° Southeast 119 137 7,500 540 Climbing Jacksonville Center
08:06AM 31.0881 -85.1486 130° Southeast 123 142 8,000 540 Climbing Jacksonville Center
08:07AM 31.0697 -85.1192 126° Southeast 118 136 8,600 480 Climbing Jacksonville Center
08:08AM 31.0514 -85.0894 126° Southeast 108 124 9,000 180 Climbing Jacksonville Center
08:09AM 31.0269 -85.0600 134° Southeast 135 155 9,000  Level Jacksonville Center
08:41AM 30.0508 -83.9917 139° Southeast 163 188 9,000  Level Jacksonville Center
08:42AM 30.0355 -83.9847 139° Southeast  Level FlightAware Approximate
08:42AM 30.0200 -83.9578 136° Southeast 168 193 9,000  Level Jacksonville Center
08:43AM 30.0031 -83.9524 139° Southeast  Level FlightAware Approximate
08:43AM 29.9825 -83.9261 144° Southeast 168 193 9,000  Level Jacksonville Center
08:44AM 29.9706 -83.9201 139° Southeast  Level FlightAware Approximate
08:44AM 29.9514 -83.8922 137° Southeast 168 193 9,000  Level Jacksonville Center
08:45AM 29.9381 -83.8878 139° Southeast  Level FlightAware Approximate
08:45AM 29.9183 -83.8583 138° Southeast 162 186 9,000  Level Jacksonville Center
08:46AM 29.9056 -83.8555 139° Southeast  Level FlightAware Approximate
08:46AM 29.8853 -83.8269 141° Southeast 162 186 9,000  Level Jacksonville Center
08:47AM 29.8500 -83.7931 140° Southeast 162 186 9,000  Level Jacksonville Center
08:48AM 29.8167 -83.7592 139° Southeast 157 181 9,000  Level Jacksonville Center
08:49AM 29.7836 -83.7278 141° Southeast 157 181 9,000  Level Jacksonville Center
08:50AM 29.7503 -83.6964 141° Southeast 157 181 9,000  Level Jacksonville Center
08:51AM 29.7150 -83.6603 138° Southeast 157 181 9,000  Level Jacksonville Center
08:52AM 29.6797 -83.6289 142° Southeast 157 181 9,000  Level Jacksonville Center
08:53AM 29.6467 -83.5950 138° Southeast 157 181 9,000  Level Jacksonville Center
08:54AM 29.6133 -83.5614 139° Southeast 157 181 9,000  Level Jacksonville Center
08:55AM 29.5781 -83.5206 135° Southeast 163 188 9,000  Level Jacksonville Center
08:56AM 29.5492 -83.4822 131° Southeast 163 188 9,000  Level Jacksonville Center
08:57AM 29.5178 -83.4439 133° Southeast 163 188 9,000  Level Jacksonville Center
08:58AM 29.4847 -83.4103 138° Southeast 163 188 9,000  Level Jacksonville Center
08:59AM 29.4514 -83.3719 135° Southeast 163 188 9,000  Level Jacksonville Center
09:00AM 29.4203 -83.3361 135° Southeast 163 188 9,000  Level Jacksonville Center
09:01AM 29.3933 -83.2931 126° Southeast 163 188 9,000  Level Jacksonville Center
09:02AM 29.3661 -83.2475 124° Southeast 163 188 9,000  Level Jacksonville Center
09:03AM 29.3414 -83.2047 124° Southeast 163 188 9,000  Level Jacksonville Center
09:04AM 29.3142 -83.1617 126° Southeast 163 188 9,000  Level Jacksonville Center
09:05AM 29.2933 -83.1236 122° Southeast 163 188 9,000  Level Jacksonville Center
09:06AM 29.2789 -83.0997 125° Southeast 163 188 9,000  Level Jacksonville Center
09:07AM 29.2517 -83.0544 125° Southeast 164 189 9,000  Level Jacksonville Center
09:07AM 29.2392 -83.0306 121° Southeast 168 193 9,000  Level Jacksonville Center
09:08AM 29.2247 -83.0117 131° Southeast 165 190 9,000  Level Jacksonville Center
09:08AM 29.2100 -82.9878 125° Southeast 168 193 9,000  Level Jacksonville Center
09:09AM 29.1997 -82.9711 125° Southeast 166 191 9,000  Level Jacksonville Center
09:09AM 29.1850 -82.9450 123° Southeast 168 193 9,000  Level Jacksonville Center
09:10AM 29.1725 -82.9306 135° Southeast 163 188 9,000  Level Jacksonville Center
09:10AM 29.1581 -82.9044 122° Southeast 168 193 9,000  Level Jacksonville Center
09:11AM 29.1456 -82.8831 124° Southeast 161 185 9,000  Level Jacksonville Center
09:11AM 29.1328 -82.8617 124° Southeast 168 193 9,000  Level Jacksonville Center
09:12AM 29.1203 -82.8428 127° Southeast 160 184 9,000  Level Jacksonville Center
09:12AM 29.1017 -82.8261 142° Southeast 168 193 9,000  Level Jacksonville Center
09:13AM 29.0767 -82.8283 184° South 156 180 9,000  Level Jacksonville Center
09:13AM 29.0597 -82.8214 160° South 149 171 9,000  Level Jacksonville Center
09:14AM 29.0328 -82.8189 175° South 153 176 9,000  Level Jacksonville Center
09:14AM 29.0181 -82.8167 172° South 149 171 9,000  Level Jacksonville Center
09:15AM 28.9889 -82.8167 180° South 156 180 9,000  Level Jacksonville Center
09:15AM 28.9722 -82.8142 173° South 160 184 9,000  Level Jacksonville Center
09:16AM 28.9450 -82.8142 180° South 158 182 9,000  Level Jacksonville Center
09:16AM 28.9283 -82.8094 166° South 160 184 9,000  Level Jacksonville Center
09:17AM 28.9011 -82.8094 180° South 156 180 9,000  Level Jacksonville Center
09:17AM 28.8867 -82.8047 164° South 160 184 9,000  Level Jacksonville Center
09:18AM 28.8575 -82.8025 176° South 157 181 9,000  Level Jacksonville Center
09:18AM 28.8428 -82.7978 164° South 160 184 9,000  Level Jacksonville Center
09:19AM 28.8156 -82.7956 176° South 157 181 9,000  Level Jacksonville Center
09:19AM 28.7989 -82.7931 173° South 160 184 9,000  Level Jacksonville Center
09:20AM 28.7697 -82.7908 176° South 156 180 9,000  Level Jacksonville Center
09:20AM 28.7592 -82.7883 168° South 160 184 9,000  Level Jacksonville Center
09:21AM 28.7281 -82.7861 176° South 151 174 9,000  Level Jacksonville Center
09:21AM 28.7156 -82.7814 162° South 160 184 9,000  Level Jacksonville Center
09:22AM 28.6925 -82.7814 180° South 152 175 9,000  Level Jacksonville Center
09:22AM 28.6778 -82.7672 140° Southeast 160 184 9,000  Level Jacksonville Center
09:23AM 28.6506 -82.7411 140° Southeast 178 205 9,000  Level Jacksonville Center
09:24AM 28.6236 -82.7106 135° Southeast 164 189 9,000  Level Jacksonville Center
09:25AM 28.5858 -82.6797 144° Southeast 163 188 9,000  Level Jacksonville Center
09:26AM 28.5442 -82.6419 141° Southeast 163 188 9,000  Level Jacksonville Center
09:27AM 28.5086 -82.6067 139° Southeast 163 188 9,000  Level Jacksonville Center
09:28AM 28.4708 -82.5739 143° Southeast 168 193 9,000  Level Jacksonville Center
09:30AM 28.4125 -82.5172 139° Southeast 167 192 9,000  Level Miami Center
09:31AM 28.3758 -82.4850 142° Southeast 167 192 9,000  Level Miami Center
09:32AM 28.3431 -82.4483 135° Southeast 166 191 9,000  Level Miami Center
09:33AM 28.3114 -82.4103 133° Southeast 166 191 9,000  Level Miami Center
09:34AM 28.2833 -82.3667 126° Southeast 165 190 9,000  Level Tampa TRACON
09:35AM 28.2500 -82.3333 139° Southeast 167 192 9,000  Level Tampa TRACON
09:36AM 28.2167 -82.2833 127° Southeast 164 189 9,000  Level Tampa TRACON
09:37AM 28.1833 -82.2500 139° Southeast 165 190 9,000  Level Tampa TRACON
09:38AM 28.1500 -82.2167 139° Southeast 164 189 9,000  Level Tampa TRACON
09:39AM 28.1167 -82.1667 127° Southeast 166 191 9,000  Level Tampa TRACON
09:40AM 28.0833 -82.1333 139° Southeast 166 191 9,000 300 Level Tampa TRACON
09:41AM 28.0500 -82.1000 139° Southeast 149 171 9,600 180 Climbing Tampa TRACON
09:42AM 28.0333 -82.0667 120° Southeast 159 183 9,400 -120 Descending Tampa TRACON
09:44AM 27.9578 -81.9925 139° Southeast 164 189 9,400  Level Miami Center
09:45AM 27.9181 -81.9481 135° Southeast 165 190 9,500  Climbing Miami Center
09:46AM 27.8858 -81.9103 134° Southeast 166 191 9,400 -60 Descending Miami Center
09:47AM 27.8528 -81.8722 134° Southeast 166 191 9,400  Level Miami Center
09:48AM 27.8203 -81.8344 134° Southeast 166 191 9,400  Level Miami Center
09:49AM 27.7858 -81.7972 136° Southeast 167 192 9,500  Climbing Miami Center
09:50AM 27.7519 -81.7603 136° Southeast 167 192 9,400 -60 Descending Miami Center
09:51AM 27.7186 -81.7233 136° Southeast 167 192 9,400  Level Miami Center
09:52AM 27.6858 -81.6864 135° Southeast 167 192 9,400  Level Miami Center
09:53AM 27.6528 -81.6492 135° Southeast 167 192 9,500  Climbing Miami Center
09:55AM 27.6139 -81.6056 135° Southeast 167 192 9,400 -60 Descending Miami Center
09:56AM 27.5808 -81.5692 136° Southeast 167 192 9,400  Level Miami Center
09:57AM 27.5481 -81.5333 136° Southeast 165 190 9,400  Level Miami Center
09:58AM 27.5158 -81.4975 135° Southeast 165 190 9,400  Level Miami Center
09:59AM 27.4833 -81.4617 136° Southeast 164 189 9,400  Level Miami Center
10:00AM 27.4506 -81.4256 136° Southeast 164 189 9,400  Level Miami Center
10:01AM 27.4181 -81.3906 136° Southeast 164 189 9,400  Level Miami Center
10:02AM 27.3814 -81.3494 135° Southeast 162 186 9,400  Level Miami Center
10:03AM 27.3472 -81.3128 136° Southeast 161 185 9,400  Level Miami Center
10:04AM 27.3147 -81.2761 135° Southeast 161 185 9,400  Level Miami Center
10:05AM 27.2819 -81.2394 135° Southeast 161 185 9,500  Climbing Miami Center
10:06AM 27.2483 -81.2022 135° Southeast 161 185 9,400 -60 Descending Miami Center
10:07AM 27.2150 -81.1669 137° Southeast 160 184 9,400  Level Miami Center
10:08AM 27.1853 -81.1325 134° Southeast 160 184 9,400  Level Miami Center
10:09AM 27.1522 -81.0956 135° Southeast 160 184 9,400  Level Miami Center
10:10AM 27.1194 -81.0600 136° Southeast 160 184 9,500  Climbing Miami Center
10:11AM 27.0856 -81.0225 135° Southeast 160 184 9,400  Descending Miami Center
10:12AM 27.0514 -80.9856 136° Southeast 161 185 9,500  Climbing Miami Center
10:13AM 27.0178 -80.9486 136° Southeast 161 185 9,400  Descending Miami Center
10:14AM 26.9861 -80.9144 136° Southeast 162 186 9,500  Climbing Miami Center
10:15AM 26.9525 -80.8772 135° Southeast 162 186 9,400 -60 Descending Miami Center
10:16AM 26.9197 -80.8417 136° Southeast 160 184 9,400  Level Miami Center
10:17AM 26.8853 -80.8058 137° Southeast 159 183 9,400  Level Miami Center
10:18AM 26.8522 -80.7683 135° Southeast 160 184 9,500  Climbing Miami Center
10:19AM 26.8181 -80.7325 137° Southeast 160 184 9,500 -180 Level Miami Center
10:20AM 26.7861 -80.6981 136° Southeast 163 188 9,200 -480 Descending Miami Center
10:21AM 26.7464 -80.6561 137° Southeast 180 207 8,600 -480 Descending Miami Center
10:22AM 26.7108 -80.6144 134° Southeast 182 209 8,300 -480 Descending Miami Center
10:23AM 26.6714 -80.5717 136° Southeast 184 212 7,700 -600 Descending Miami Center
10:24AM 26.6339 -80.5306 136° Southeast 190 219 7,100 -540 Descending Miami Center
10:25AM 26.5967 -80.4900 136° Southeast 189 217 6,600 -600 Descending Miami Center
10:26AM 26.5583 -80.4461 134° Southeast 184 212 5,900 -600 Descending Miami Center
10:28AM 26.5097 -80.3947 137° Southeast 180 207 5,200 -600 Descending Miami Center
10:28AM 26.4842 -80.3694 138° Southeast 184 212 4,700 -780 Descending Miami Center
10:30AM 26.4469 -80.3264 134° Southeast 180 207 3,900 -900 Descending Miami Center
10:31AM 26.4117 -80.2892 137° Southeast 177 204 2,900 -600 Descending Miami Center
10:32AM 26.3783 -80.2522 135° Southeast 176 203 2,700 -240 Descending Miami Center